Time;durP1;ratioP1;P1;durP2;ratioP2;P2;SDS_P1;SDS_P2;PMS_P1;PMS_P2;Temp;Humidity;BMP_temperature;BMP_pressure;BME280_temperature;BME280_humidity;BME280_pressure;Samples;Min_cycle;Max_cycle;Signal;HPM_P1;HPM_P2
2021/03/19 00:01:37;;;;;;;7.15;4.40;;;4.90;99.90;;;;;;5078141;28;20228;-74
2021/03/19 00:04:03;;;;;;;9.80;5.20;;;4.70;99.90;;;;;;5077743;28;20223;-74
2021/03/19 00:06:30;;;;;;;9.18;4.70;;;4.70;99.90;;;;;;5076366;28;20289;-74
2021/03/19 00:08:57;;;;;;;6.70;4.80;;;4.70;99.90;;;;;;5077310;28;20205;-74
2021/03/19 00:11:24;;;;;;;6.30;4.57;;;4.80;99.90;;;;;;5077374;28;20313;-74
2021/03/19 00:13:51;;;;;;;7.97;4.95;;;4.50;99.90;;;;;;5076996;28;20250;-74
2021/03/19 00:16:17;;;;;;;11.30;5.50;;;4.60;99.90;;;;;;5076636;28;20302;-74
2021/03/19 00:18:44;;;;;;;8.48;5.00;;;4.40;99.90;;;;;;5076890;28;20290;-74
2021/03/19 00:21:11;;;;;;;8.95;4.80;;;4.40;99.90;;;;;;5075757;28;20242;-75
2021/03/19 00:23:37;;;;;;;7.22;4.80;;;4.50;99.90;;;;;;5075453;28;20229;-75
2021/03/19 00:26:03;;;;;;;9.10;5.28;;;4.50;99.90;;;;;;5075991;28;20293;-73
2021/03/19 00:28:31;;;;;;;7.93;4.82;;;4.60;99.90;;;;;;5075444;28;20271;-75
2021/03/19 00:30:57;;;;;;;8.75;4.68;;;4.70;99.90;;;;;;5075929;28;20285;-76
2021/03/19 00:33:23;;;;;;;9.57;5.40;;;4.70;99.90;;;;;;5074876;28;20237;-73
2021/03/19 00:35:50;;;;;;;7.05;4.80;;;4.80;99.90;;;;;;5073934;28;20290;-74
2021/03/19 00:38:17;;;;;;;5.78;4.53;;;4.90;99.90;;;;;;5074715;28;20690;-74
2021/03/19 00:40:44;;;;;;;8.25;5.82;;;4.80;99.90;;;;;;5073853;28;20256;-73
2021/03/19 00:43:12;;;;;;;9.90;5.28;;;4.80;99.90;;;;;;5074021;28;20581;-72
2021/03/19 00:45:40;;;;;;;8.93;5.68;;;4.80;99.90;;;;;;5073229;28;20740;-76
2021/03/19 00:48:07;;;;;;;9.82;5.78;;;4.80;99.90;;;;;;5074820;28;20206;-76
2021/03/19 00:50:36;;;;;;;9.80;5.25;;;4.80;99.90;;;;;;5076673;28;20540;-73
2021/03/19 00:53:02;;;;;;;12.13;6.15;;;4.80;99.90;;;;;;5077367;28;20681;-73
2021/03/19 00:55:29;;;;;;;10.77;5.82;;;4.80;99.90;;;;;;5076918;28;20211;-72
2021/03/19 00:57:55;;;;;;;8.45;5.43;;;4.90;99.90;;;;;;5077030;28;20293;-73
2021/03/19 01:00:24;;;;;;;8.07;5.28;;;4.70;99.90;;;;;;5077979;28;20213;-73
2021/03/19 01:02:51;;;;;;;9.43;5.80;;;4.50;99.90;;;;;;5078144;28;20282;-73
2021/03/19 01:05:19;;;;;;;8.85;5.00;;;4.30;99.90;;;;;;5077643;28;20687;-72
2021/03/19 01:07:46;;;;;;;9.35;6.45;;;4.10;99.90;;;;;;5077525;28;20203;-72
2021/03/19 01:10:16;;;;;;;9.65;5.78;;;4.00;99.90;;;;;;5077089;28;20298;-72
2021/03/19 01:12:43;;;;;;;13.20;6.32;;;3.80;99.90;;;;;;5077232;28;20608;-71
2021/03/19 01:15:10;;;;;;;11.50;6.72;;;3.60;99.90;;;;;;5086750;28;20198;-72
2021/03/19 01:17:36;;;;;;;10.10;6.20;;;3.60;99.90;;;;;;5080187;28;20273;-72
2021/03/19 01:20:07;;;;;;;8.65;5.75;;;3.60;99.90;;;;;;5085128;28;20194;-71
2021/03/19 01:22:34;;;;;;;8.95;5.47;;;3.80;99.90;;;;;;5083514;28;20272;-72
2021/03/19 01:25:00;;;;;;;10.35;6.07;;;3.80;99.90;;;;;;5086945;28;20205;-72
2021/03/19 01:27:26;;;;;;;9.90;6.85;;;3.80;99.90;;;;;;5084102;28;20278;-71
2021/03/19 01:29:53;;;;;;;10.63;6.03;;;3.90;99.90;;;;;;5086110;28;20191;-72
2021/03/19 01:32:19;;;;;;;11.82;6.43;;;4.10;99.90;;;;;;5081676;28;20218;-72
2021/03/19 01:34:46;;;;;;;10.63;6.10;;;4.20;99.90;;;;;;5084652;28;20199;-72
2021/03/19 01:37:13;;;;;;;9.77;5.32;;;4.20;99.90;;;;;;5082752;28;20198;-71
2021/03/19 01:39:39;;;;;;;10.50;6.35;;;4.20;99.90;;;;;;5089335;28;20225;-72
2021/03/19 01:42:08;;;;;;;11.30;6.18;;;4.20;99.90;;;;;;5095754;28;20202;-72
2021/03/19 01:44:39;;;;;;;8.13;5.35;;;4.20;99.90;;;;;;5095993;28;20682;-71
2021/03/19 01:47:42;;;;;;;8.30;5.68;;;4.20;99.90;;;;;;5095781;28;20220;-72
2021/03/19 01:50:46;;;;;;;8.18;5.10;;;4.30;99.90;;;;;;5096372;28;20201;-72
2021/03/19 01:53:49;;;;;;;8.35;5.30;;;4.20;99.90;;;;;;5096625;28;20658;-72
2021/03/19 01:56:53;;;;;;;9.63;5.75;;;4.00;99.90;;;;;;5096266;28;20296;-72
2021/03/19 01:59:57;;;;;;;11.82;6.10;;;3.90;99.90;;;;;;5096816;28;20202;-72
2021/03/19 02:03:01;;;;;;;10.43;5.63;;;3.80;99.90;;;;;;5096408;28;20229;-72
2021/03/19 02:06:05;;;;;;;8.77;5.85;;;3.90;99.90;;;;;;5096753;28;20212;-72
2021/03/19 02:09:08;;;;;;;10.18;4.65;;;4.00;99.90;;;;;;5096121;28;20785;-72
2021/03/19 02:12:11;;;;;;;8.55;5.18;;;4.00;99.90;;;;;;5096591;28;20308;-72
2021/03/19 02:15:14;;;;;;;9.10;4.93;;;4.00;99.90;;;;;;5064855;28;20292;-72
2021/03/19 02:18:18;;;;;;;9.75;6.25;;;3.90;99.90;;;;;;5096658;28;20597;-71
2021/03/19 02:21:22;;;;;;;8.80;5.95;;;3.90;99.90;;;;;;5096490;28;20292;-72
2021/03/19 02:24:25;;;;;;;10.95;5.50;;;4.00;99.90;;;;;;5096491;28;20288;-71
2021/03/19 02:27:29;;;;;;;9.63;5.50;;;4.00;99.90;;;;;;5096367;28;20541;-71
2021/03/19 02:30:32;;;;;;;12.45;5.70;;;3.90;99.90;;;;;;5096373;28;20782;-71
2021/03/19 02:32:59;;;;;;;13.23;5.60;;;3.70;99.90;;;;;;5096608;28;20232;-71
2021/03/19 02:35:26;;;;;;;9.10;6.10;;;3.60;99.90;;;;;;5095966;28;20273;-71
2021/03/19 02:37:52;;;;;;;9.40;6.85;;;3.50;99.90;;;;;;5095517;28;20644;-72
2021/03/19 02:40:21;;;;;;;11.48;6.97;;;3.30;99.90;;;;;;5095114;28;20205;-71
2021/03/19 02:42:48;;;;;;;9.93;6.40;;;3.30;99.90;;;;;;5094049;28;20221;-71
2021/03/19 02:45:18;;;;;;;17.00;7.15;;;3.30;99.90;;;;;;5096691;28;20213;-71
2021/03/19 02:47:45;;;;;;;13.80;7.82;;;3.20;99.90;;;;;;5099469;28;20206;-71
2021/03/19 02:50:13;;;;;;;10.93;7.53;;;3.20;99.90;;;;;;5099668;28;20205;-71
2021/03/19 02:52:43;;;;;;;12.45;7.65;;;3.10;99.90;;;;;;5100035;28;20247;-71
2021/03/19 02:55:12;;;;;;;11.77;5.80;;;3.20;99.90;;;;;;5100687;28;20214;-72
2021/03/19 02:57:39;;;;;;;11.80;5.95;;;3.40;99.90;;;;;;5100367;28;20233;-71
2021/03/19 03:00:08;;;;;;;11.60;6.50;;;3.60;99.90;;;;;;5099706;28;20284;-71
2021/03/19 03:02:35;;;;;;;9.75;7.00;;;3.60;99.90;;;;;;5099135;28;20424;-71
2021/03/19 03:05:01;;;;;;;11.77;6.80;;;3.60;99.90;;;;;;5099709;28;20335;-71
2021/03/19 03:07:31;;;;;;;12.23;6.05;;;3.80;99.90;;;;;;5100206;28;20298;-71
2021/03/19 03:09:58;;;;;;;11.57;7.93;;;3.90;99.90;;;;;;5099844;28;20229;-71
2021/03/19 03:12:27;;;;;;;11.10;6.78;;;3.80;99.90;;;;;;5099442;28;20218;-71
2021/03/19 03:14:54;;;;;;;12.73;7.15;;;3.80;99.90;;;;;;5100110;28;20202;-72
2021/03/19 03:17:21;;;;;;;15.00;7.45;;;3.90;99.90;;;;;;5099977;28;20293;-71
2021/03/19 03:19:47;;;;;;;11.60;5.90;;;3.90;99.90;;;;;;5099391;28;20197;-72
2021/03/19 03:22:14;;;;;;;10.85;7.20;;;3.90;99.90;;;;;;5097349;28;20198;-71
2021/03/19 03:24:41;;;;;;;14.55;7.50;;;3.80;99.90;;;;;;5098136;28;20230;-72
2021/03/19 03:27:08;;;;;;;13.00;7.68;;;3.70;99.90;;;;;;5097380;28;20206;-70
2021/03/19 03:29:35;;;;;;;16.45;7.00;;;3.60;99.90;;;;;;5097793;28;20600;-71
2021/03/19 03:32:02;;;;;;;8.80;5.78;;;3.60;99.90;;;;;;5097206;28;20226;-71
2021/03/19 03:34:28;;;;;;;11.25;6.35;;;3.70;99.90;;;;;;5097696;28;20225;-71
2021/03/19 03:36:55;;;;;;;9.75;6.22;;;3.80;99.90;;;;;;5097261;28;20293;-72
2021/03/19 03:39:26;;;;;;;10.32;6.30;;;4.00;99.90;;;;;;5097366;28;20290;-72
2021/03/19 03:41:54;;;;;;;9.63;5.75;;;4.10;99.90;;;;;;5097211;28;20263;-72
2021/03/19 03:44:21;;;;;;;11.65;6.28;;;4.20;99.90;;;;;;5097345;28;20218;-72
2021/03/19 03:46:48;;;;;;;11.63;7.30;;;4.30;99.90;;;;;;5097118;28;20206;-72
2021/03/19 03:49:16;;;;;;;11.30;6.63;;;4.30;99.90;;;;;;5096948;28;20217;-72
2021/03/19 03:51:44;;;;;;;15.68;7.97;;;4.20;99.90;;;;;;5096831;28;20315;-72
2021/03/19 03:54:11;;;;;;;12.68;7.57;;;4.10;99.90;;;;;;5096971;28;20226;-72
2021/03/19 03:56:37;;;;;;;13.98;7.47;;;4.10;99.90;;;;;;5095872;28;20274;-71
2021/03/19 03:59:05;;;;;;;10.85;7.78;;;4.10;99.90;;;;;;5096919;28;20237;-71
2021/03/19 04:01:32;;;;;;;11.45;7.00;;;4.00;99.90;;;;;;5096951;28;20202;-72
2021/03/19 04:03:59;;;;;;;12.27;7.10;;;3.80;99.90;;;;;;5096957;28;20244;-71
2021/03/19 04:06:25;;;;;;;15.57;7.53;;;3.80;99.90;;;;;;5096817;28;20362;-71
2021/03/19 04:08:51;;;;;;;13.70;7.85;;;3.90;99.90;;;;;;5096663;28;20202;-72
2021/03/19 04:11:20;;;;;;;12.32;7.70;;;3.90;99.90;;;;;;5097076;28;20443;-71
2021/03/19 04:13:47;;;;;;;11.75;7.80;;;4.10;99.90;;;;;;5095899;28;20309;-71
2021/03/19 04:16:15;;;;;;;13.45;8.27;;;4.20;99.90;;;;;;5096394;28;20578;-72
2021/03/19 04:18:42;;;;;;;11.23;7.10;;;4.20;99.90;;;;;;5096723;28;20206;-71
2021/03/19 04:21:10;;;;;;;10.98;6.75;;;4.30;99.90;;;;;;5096806;28;20209;-71
2021/03/19 04:23:39;;;;;;;10.38;6.72;;;4.40;99.90;;;;;;5097753;28;20818;-71
2021/03/19 04:26:07;;;;;;;14.93;7.68;;;4.40;99.90;;;;;;5097049;28;20301;-72
2021/03/19 04:28:36;;;;;;;12.75;7.00;;;4.30;99.90;;;;;;5096723;28;20293;-71
2021/03/19 04:31:03;;;;;;;14.57;7.65;;;4.40;99.90;;;;;;5097198;28;20296;-71
2021/03/19 04:33:31;;;;;;;12.63;8.02;;;4.30;99.90;;;;;;5097587;28;20226;-71
2021/03/19 04:36:07;;;;;;;15.35;8.18;;;4.40;99.90;;;;;;5097942;28;20208;-71
2021/03/19 04:38:36;;;;;;;11.32;7.32;;;4.40;99.90;;;;;;5097523;28;20202;-71
2021/03/19 04:41:04;;;;;;;13.50;7.93;;;4.20;99.90;;;;;;5097318;28;20677;-71
2021/03/19 04:43:32;;;;;;;10.50;6.93;;;4.10;99.90;;;;;;5097803;28;20727;-71
2021/03/19 04:45:58;;;;;;;14.60;8.00;;;4.00;99.90;;;;;;5097002;28;20213;-70
2021/03/19 04:48:25;;;;;;;12.35;7.50;;;4.00;99.90;;;;;;5096594;28;20296;-71
2021/03/19 04:50:52;;;;;;;13.68;7.75;;;3.90;99.90;;;;;;5096330;28;20414;-71
2021/03/19 04:53:18;;;;;;;14.02;8.23;;;3.90;99.90;;;;;;5096146;28;20225;-71
2021/03/19 04:55:45;;;;;;;12.73;7.85;;;3.80;99.90;;;;;;5097247;28;20310;-71
2021/03/19 04:58:11;;;;;;;13.00;7.95;;;3.70;99.90;;;;;;5096818;28;20747;-72
2021/03/19 05:00:37;;;;;;;13.02;7.47;;;3.70;99.90;;;;;;5096902;28;20227;-72
2021/03/19 05:03:04;;;;;;;13.65;7.72;;;3.70;99.90;;;;;;5096778;28;20222;-71
2021/03/19 05:05:32;;;;;;;14.40;7.85;;;3.60;99.90;;;;;;5097405;28;20202;-71
2021/03/19 05:08:00;;;;;;;13.32;8.05;;;3.70;99.90;;;;;;5097214;28;20551;-71
2021/03/19 05:10:29;;;;;;;15.15;8.77;;;3.80;99.90;;;;;;5097412;28;20782;-71
2021/03/19 05:12:57;;;;;;;18.30;9.20;;;3.90;99.90;;;;;;5096966;28;20321;-72
2021/03/19 05:15:25;;;;;;;14.55;7.40;;;4.00;99.90;;;;;;5097361;28;20289;-71
2021/03/19 05:17:51;;;;;;;16.60;8.30;;;4.10;99.90;;;;;;5096355;28;20209;-71
2021/03/19 05:20:19;;;;;;;12.95;8.20;;;4.20;99.90;;;;;;5096584;28;20609;-71
2021/03/19 05:22:45;;;;;;;10.85;7.40;;;4.30;99.90;;;;;;5095760;28;20605;-72
2021/03/19 05:25:16;;;;;;;13.10;6.20;;;4.40;99.90;;;;;;5096482;28;20270;-72
2021/03/19 05:27:44;;;;;;;10.80;6.82;;;4.50;99.90;;;;;;5096281;28;20254;-72
2021/03/19 05:30:14;;;;;;;12.07;7.07;;;4.40;99.90;;;;;;5096346;28;20198;-72
2021/03/19 05:32:41;;;;;;;10.85;7.00;;;4.30;99.90;;;;;;5095996;28;20283;-71
2021/03/19 05:35:09;;;;;;;15.00;7.38;;;4.20;99.90;;;;;;5096237;28;20292;-71
2021/03/19 05:37:36;;;;;;;10.15;7.53;;;4.30;99.90;;;;;;5095508;28;20248;-71
2021/03/19 05:40:04;;;;;;;13.70;6.43;;;4.40;99.90;;;;;;5095915;28;20687;-72
2021/03/19 05:42:33;;;;;;;10.90;7.03;;;4.40;99.90;;;;;;5096310;28;21732;-71
2021/03/19 05:45:01;;;;;;;11.52;7.13;;;4.50;99.90;;;;;;5095817;28;20296;-71
2021/03/19 05:47:29;;;;;;;16.55;8.18;;;4.50;99.90;;;;;;5096144;28;20293;-71
2021/03/19 05:49:59;;;;;;;10.77;6.63;;;4.60;99.90;;;;;;5096036;28;20237;-72
2021/03/19 05:52:29;;;;;;;12.40;7.22;;;4.60;99.90;;;;;;5095935;28;20260;-72
2021/03/19 05:54:56;;;;;;;11.00;7.30;;;4.50;99.90;;;;;;5096209;28;20277;-71
2021/03/19 05:57:27;;;;;;;12.23;7.35;;;4.30;99.90;;;;;;5095505;28;20293;-71
2021/03/19 05:59:56;;;;;;;15.23;7.43;;;4.10;99.90;;;;;;5095547;28;20212;-71
2021/03/19 06:02:26;;;;;;;13.50;6.68;;;4.00;99.90;;;;;;5095680;28;20337;-72
2021/03/19 06:05:15;;;;;;;13.90;7.88;;;4.00;99.90;;;;;;5095708;28;20830;-72
2021/03/19 06:07:47;;;;;;;17.83;8.50;;;3.90;99.90;;;;;;5095219;28;20287;-71
2021/03/19 06:10:30;;;;;;;17.00;9.95;;;3.90;99.90;;;;;;5096236;28;20720;-72
2021/03/19 06:13:12;;;;;;;15.75;9.52;;;3.60;99.90;;;;;;5096183;28;20625;-72
2021/03/19 06:15:42;;;;;;;15.85;9.15;;;3.50;99.90;;;;;;5096236;28;20190;-72
2021/03/19 06:18:19;;;;;;;18.48;9.57;;;3.50;99.90;;;;;;5095497;28;20292;-71
2021/03/19 06:20:54;;;;;;;17.17;9.57;;;3.40;99.90;;;;;;5093974;28;20212;-71
2021/03/19 06:23:23;;;;;;;15.70;9.65;;;3.50;99.90;;;;;;5096365;28;20300;-71
2021/03/19 06:26:03;;;;;;;18.20;9.65;;;3.50;99.90;;;;;;5096049;28;20293;-71
2021/03/19 06:28:32;;;;;;;16.13;9.70;;;3.50;99.90;;;;;;5095866;28;20225;-71
2021/03/19 06:31:21;;;;;;;18.20;9.65;;;3.60;99.90;;;;;;5095934;28;20289;-71
2021/03/19 06:34:02;;;;;;;14.95;9.50;;;3.40;99.90;;;;;;5096114;28;20226;-71
2021/03/19 06:36:30;;;;;;;19.63;9.68;;;3.50;99.90;;;;;;5096106;28;20210;-71
2021/03/19 06:39:07;;;;;;;15.18;9.20;;;3.50;99.90;;;;;;5096044;28;20198;-71
2021/03/19 06:41:35;;;;;;;22.02;12.25;;;3.70;99.90;;;;;;5096263;28;20683;-71
2021/03/19 06:44:25;;;;;;;17.35;10.05;;;3.60;99.90;;;;;;5095102;28;20221;-71
2021/03/19 06:46:57;;;;;;;17.35;10.32;;;3.40;99.90;;;;;;5078807;28;20289;-71
2021/03/19 06:49:25;;;;;;;16.13;10.13;;;3.30;99.90;;;;;;5094918;28;20670;-71
2021/03/19 06:51:53;;;;;;;16.38;10.15;;;3.40;99.90;;;;;;5094532;28;20202;-71
2021/03/19 06:54:21;;;;;;;18.80;10.48;;;3.50;99.90;;;;;;5095531;28;20232;-71
2021/03/19 06:57:04;;;;;;;17.88;11.23;;;3.60;99.90;;;;;;5094846;28;20210;-71
2021/03/19 06:59:42;;;;;;;16.67;10.02;;;3.60;99.90;;;;;;5096826;28;20294;-71
2021/03/19 07:02:49;;;;;;;21.75;11.68;;;3.70;99.90;;;;;;5096697;28;20217;-71
2021/03/19 07:05:27;;;;;;;20.95;11.60;;;3.70;99.90;;;;;;5096072;28;20531;-71
2021/03/19 07:08:10;;;;;;;21.35;11.57;;;3.60;99.90;;;;;;5095305;28;20599;-71
2021/03/19 07:11:14;;;;;;;20.20;10.68;;;3.60;99.90;;;;;;5095628;28;20617;-71
2021/03/19 07:14:07;;;;;;;25.58;12.68;;;3.70;99.90;;;;;;5064152;28;20229;-72
2021/03/19 07:16:45;;;;;;;22.63;11.50;;;3.80;99.90;;;;;;5095171;28;20209;-71
2021/03/19 07:19:19;;;;;;;21.02;11.73;;;4.00;99.90;;;;;;5094493;28;20190;-71
2021/03/19 07:22:01;;;;;;;20.67;12.23;;;4.10;99.90;;;;;;5095705;28;20228;-71
2021/03/19 07:25:10;;;;;;;23.27;11.40;;;3.90;99.90;;;;;;5095107;28;20313;-71
2021/03/19 07:27:47;;;;;;;22.95;11.80;;;4.00;99.90;;;;;;5095113;28;20293;-71
2021/03/19 07:30:23;;;;;;;20.20;11.20;;;4.10;99.90;;;;;;5095227;28;20628;-71
2021/03/19 07:33:25;;;;;;;24.70;12.15;;;4.00;99.90;;;;;;5098730;28;20221;-71
2021/03/19 07:36:04;;;;;;;24.13;11.93;;;3.80;99.90;;;;;;5096662;28;20214;-71
2021/03/19 07:38:59;;;;;;;22.17;10.75;;;3.90;99.90;;;;;;5100177;28;20619;-71
2021/03/19 07:41:58;;;;;;;19.27;11.38;;;3.80;99.90;;;;;;5098924;28;20202;-71
2021/03/19 07:44:35;;;;;;;24.42;11.00;;;3.70;99.90;;;;;;5096060;28;20270;-71
2021/03/19 07:47:17;;;;;;;22.17;11.15;;;3.80;99.90;;;;;;5094998;28;20236;-71
2021/03/19 07:50:13;;;;;;;25.15;12.40;;;3.70;99.90;;;;;;5097198;28;20202;-71
2021/03/19 07:52:58;;;;;;;20.83;11.18;;;3.80;99.90;;;;;;5095897;28;20310;-71
2021/03/19 07:55:31;;;;;;;23.55;11.88;;;3.90;99.90;;;;;;5097306;28;20543;-71
2021/03/19 07:58:05;;;;;;;19.33;11.00;;;3.90;99.90;;;;;;5096692;28;20213;-71
2021/03/19 08:00:37;;;;;;;30.10;12.68;;;4.10;99.90;;;;;;5096608;28;20308;-72
2021/03/19 08:03:13;;;;;;;21.80;12.90;;;4.00;99.90;;;;;;5096672;28;20312;-71
2021/03/19 08:05:46;;;;;;;23.60;12.25;;;4.10;99.90;;;;;;5096459;28;20213;-71
2021/03/19 08:08:20;;;;;;;17.40;11.25;;;4.40;99.90;;;;;;5096339;28;20254;-71
2021/03/19 08:11:04;;;;;;;20.45;9.30;;;4.40;99.90;;;;;;5096821;28;20193;-71
2021/03/19 08:13:40;;;;;;;16.55;9.60;;;4.30;99.90;;;;;;5096009;28;20298;-71
2021/03/19 08:16:11;;;;;;;18.55;9.10;;;4.00;99.90;;;;;;5096075;28;20328;-71
2021/03/19 08:18:43;;;;;;;14.52;9.25;;;3.90;99.90;;;;;;5096381;28;20209;-71
2021/03/19 08:21:24;;;;;;;14.35;6.55;;;3.80;99.90;;;;;;5096273;28;20209;-71
2021/03/19 08:24:01;;;;;;;12.00;6.82;;;3.80;99.90;;;;;;5095794;28;20680;-71
2021/03/19 08:26:34;;;;;;;16.50;7.72;;;4.00;99.90;;;;;;5095588;28;20206;-71
2021/03/19 08:29:13;;;;;;;12.27;7.60;;;3.70;99.90;;;;;;5095790;28;20264;-71
2021/03/19 08:31:46;;;;;;;12.25;7.65;;;3.70;99.90;;;;;;5096154;28;20202;-71
2021/03/19 08:34:29;;;;;;;15.88;8.10;;;3.70;99.90;;;;;;5095537;28;20313;-71
2021/03/19 08:36:56;;;;;;;9.15;5.95;;;3.80;99.90;;;;;;5095385;28;20258;-71
2021/03/19 08:39:28;;;;;;;16.40;8.00;;;3.90;99.90;;;;;;5095903;28;20382;-71
2021/03/19 08:42:00;;;;;;;14.63;7.53;;;4.00;99.90;;;;;;5095885;28;20213;-71
2021/03/19 08:44:34;;;;;;;15.23;7.45;;;4.20;99.90;;;;;;5094642;28;20308;-72
2021/03/19 08:47:11;;;;;;;15.93;8.85;;;4.40;99.90;;;;;;5095382;28;20648;-71
2021/03/19 08:49:44;;;;;;;13.10;7.38;;;4.30;99.90;;;;;;5095659;28;20289;-71
2021/03/19 08:52:25;;;;;;;14.80;7.18;;;4.30;99.90;;;;;;5095842;28;20222;-71
2021/03/19 08:55:29;;;;;;;13.57;7.10;;;4.40;99.90;;;;;;5095586;28;20210;-71
2021/03/19 08:57:57;;;;;;;14.18;7.45;;;4.50;99.90;;;;;;5095406;28;20726;-72
2021/03/19 09:00:46;;;;;;;13.75;7.30;;;4.60;99.90;;;;;;5095527;28;20248;-71
2021/03/19 09:03:48;;;;;;;13.02;8.02;;;4.40;99.90;;;;;;5095380;28;20218;-71
2021/03/19 09:06:17;;;;;;;14.18;7.05;;;4.10;99.90;;;;;;5095248;28;20202;-72
2021/03/19 09:09:15;;;;;;;16.15;8.20;;;4.10;99.90;;;;;;5096817;28;20202;-71
2021/03/19 09:12:13;;;;;;;14.55;7.68;;;4.30;99.90;;;;;;5095420;28;20202;-72
2021/03/19 09:14:44;;;;;;;16.35;7.45;;;4.30;99.90;;;;;;5095772;28;20274;-71
2021/03/19 09:17:41;;;;;;;14.88;7.30;;;4.10;99.90;;;;;;5094761;28;20210;-72
2021/03/19 09:20:23;;;;;;;17.20;9.82;;;3.90;99.90;;;;;;5095029;28;20291;-71
2021/03/19 09:23:04;;;;;;;18.15;9.35;;;3.70;99.90;;;;;;5095573;28;20305;-72
2021/03/19 09:25:41;;;;;;;19.25;7.82;;;3.50;99.90;;;;;;5095430;28;20680;-71
2021/03/19 09:28:21;;;;;;;16.52;9.68;;;3.50;99.90;;;;;;5094653;28;20239;-71
2021/03/19 09:30:54;;;;;;;13.60;7.75;;;3.70;99.90;;;;;;5095407;28;20202;-71
2021/03/19 09:33:57;;;;;;;15.95;8.15;;;3.60;99.90;;;;;;5094978;28;20294;-71
2021/03/19 09:37:15;;;;;;;15.23;9.18;;;3.90;99.90;;;;;;5095662;28;20202;-72
2021/03/19 09:40:14;;;;;;;13.70;6.43;;;4.00;99.90;;;;;;5095126;28;20202;-71
2021/03/19 09:42:50;;;;;;;18.50;8.48;;;4.00;99.90;;;;;;5071767;28;20588;-72
2021/03/19 09:45:40;;;;;;;13.98;7.40;;;4.10;99.90;;;;;;5097100;28;20245;-72
2021/03/19 09:48:26;;;;;;;10.18;6.72;;;4.30;99.90;;;;;;5096526;28;20202;-72
2021/03/19 09:51:00;;;;;;;10.82;6.40;;;4.60;99.90;;;;;;5097011;28;20248;-71
2021/03/19 09:53:34;;;;;;;9.00;5.78;;;4.60;99.90;;;;;;5095690;28;20247;-72
2021/03/19 09:56:03;;;;;;;11.57;5.68;;;4.60;99.90;;;;;;5094918;28;20241;-72
2021/03/19 09:58:39;;;;;;;7.75;5.10;;;4.80;99.90;;;;;;5088102;28;20202;-74
2021/03/19 10:01:12;;;;;;;9.80;4.90;;;5.20;99.90;;;;;;5081834;28;20203;-73
2021/03/19 10:03:47;;;;;;;9.52;6.05;;;5.40;99.90;;;;;;5076070;28;20279;-74
2021/03/19 10:06:26;;;;;;;10.05;5.95;;;5.70;99.90;;;;;;5075121;28;20245;-73
2021/03/19 10:09:06;;;;;;;10.18;5.30;;;5.90;99.90;;;;;;5075405;28;20199;-74
2021/03/19 10:11:33;;;;;;;8.52;5.13;;;6.30;99.90;;;;;;5075425;28;20293;-75
2021/03/19 10:14:14;;;;;;;10.45;6.10;;;6.70;99.90;;;;;;5073936;28;20223;-76
2021/03/19 10:16:40;;;;;;;7.35;5.43;;;6.60;99.90;;;;;;5072961;28;20289;-74
2021/03/19 10:19:17;;;;;;;11.45;6.47;;;6.50;99.90;;;;;;5072345;28;20289;-75
2021/03/19 10:21:46;;;;;;;12.25;6.10;;;6.80;99.90;;;;;;5072258;28;20241;-75
2021/03/19 10:24:13;;;;;;;10.25;6.28;;;6.70;99.90;;;;;;5072119;28;20261;-75
2021/03/19 10:26:49;;;;;;;9.93;5.30;;;6.60;99.90;;;;;;5072114;28;20289;-76
2021/03/19 10:29:21;;;;;;;10.10;5.55;;;6.70;99.90;;;;;;5072353;28;20728;-75
2021/03/19 10:31:50;;;;;;;10.18;6.38;;;6.90;99.90;;;;;;5072250;28;20206;-76
2021/03/19 10:34:26;;;;;;;8.55;5.53;;;6.60;99.90;;;;;;5072979;28;20259;-72
2021/03/19 10:36:55;;;;;;;8.18;4.45;;;6.30;99.90;;;;;;5073579;28;20660;-72
2021/03/19 10:39:30;;;;;;;10.93;5.82;;;5.90;99.90;;;;;;5074246;28;20222;-72
2021/03/19 10:42:13;;;;;;;12.10;5.80;;;5.50;99.90;;;;;;5073412;28;20206;-72
2021/03/19 10:44:45;;;;;;;10.20;5.65;;;5.30;99.90;;;;;;5073551;28;20199;-71
2021/03/19 10:47:19;;;;;;;8.60;5.65;;;5.20;99.90;;;;;;5072287;28;20309;-71
2021/03/19 10:49:51;;;;;;;11.98;5.72;;;5.20;99.90;;;;;;5074173;28;20272;-71
2021/03/19 10:52:25;;;;;;;9.60;5.32;;;5.10;99.90;;;;;;5073237;28;20234;-71
2021/03/19 10:54:53;;;;;;;10.13;5.50;;;4.90;99.90;;;;;;5072582;28;20230;-71
2021/03/19 10:57:26;;;;;;;11.07;6.10;;;4.90;99.90;;;;;;5072251;28;20202;-71
2021/03/19 10:59:53;;;;;;;9.70;5.90;;;5.00;99.90;;;;;;5072150;28;20199;-71
2021/03/19 11:02:23;;;;;;;10.57;6.25;;;4.90;99.90;;;;;;5072026;28;20263;-71
2021/03/19 11:05:08;;;;;;;9.85;5.22;;;5.00;99.90;;;;;;5072741;28;20569;-71
2021/03/19 11:07:38;;;;;;;8.70;5.50;;;5.10;99.90;;;;;;5075609;28;20637;-71
2021/03/19 11:10:11;;;;;;;6.68;4.47;;;5.20;99.90;;;;;;5076954;28;20202;-71
2021/03/19 11:12:40;;;;;;;6.00;3.90;;;4.80;99.90;;;;;;5075755;28;20709;-71
2021/03/19 11:15:10;;;;;;;6.25;3.40;;;4.80;99.90;;;;;;5076094;28;20550;-71
2021/03/19 11:17:37;;;;;;;5.53;3.05;;;5.00;99.90;;;;;;5076256;28;20241;-72
2021/03/19 11:20:08;;;;;;;5.65;3.95;;;5.20;99.90;;;;;;5077554;28;20256;-72
2021/03/19 11:22:38;;;;;;;6.05;3.38;;;5.40;99.90;;;;;;5077054;28;20218;-72
2021/03/19 11:25:49;;;;;;;6.20;3.70;;;5.50;99.90;;;;;;5077753;28;20352;-70
2021/03/19 11:28:28;;;;;;;5.05;2.75;;;5.20;99.90;;;;;;5048682;28;20203;-71
2021/03/19 11:30:55;;;;;;;7.07;3.40;;;4.70;99.90;;;;;;5075315;28;20655;-71
2021/03/19 11:33:21;;;;;;;4.60;2.95;;;4.40;99.90;;;;;;5075244;28;20233;-72
2021/03/19 11:36:14;;;;;;;4.93;3.75;;;4.40;99.90;;;;;;5075594;28;20286;-71
2021/03/19 11:38:42;;;;;;;5.82;3.35;;;4.20;99.90;;;;;;5039244;28;20206;-72
2021/03/19 11:41:27;;;;;;;5.57;3.20;;;4.50;99.90;;;;;;5074978;28;20203;-73
2021/03/19 11:43:57;;;;;;;4.47;2.85;;;4.90;99.90;;;;;;5075091;28;20225;-72
2021/03/19 11:46:25;;;;;;;4.47;2.80;;;5.30;99.90;;;;;;5074730;28;20302;-72
2021/03/19 11:48:51;;;;;;;6.68;3.67;;;5.60;99.90;;;;;;5075068;28;20198;-72
2021/03/19 11:51:29;;;;;;;6.57;4.63;;;5.60;99.90;;;;;;5074759;28;20207;-72
2021/03/19 11:53:55;;;;;;;4.50;3.08;;;5.20;99.90;;;;;;5074502;28;20230;-72
2021/03/19 11:56:22;;;;;;;4.75;3.35;;;5.40;99.90;;;;;;5075464;28;20290;-72
2021/03/19 11:58:48;;;;;;;5.55;3.83;;;5.50;99.90;;;;;;5077046;28;20271;-71
2021/03/19 12:01:16;;;;;;;7.20;4.10;;;5.60;99.90;;;;;;5075864;28;20280;-72
2021/03/19 12:03:44;;;;;;;4.65;3.25;;;5.40;99.90;;;;;;5074403;28;20218;-73
2021/03/19 12:06:12;;;;;;;7.13;4.13;;;5.40;99.90;;;;;;5074178;28;20206;-76
2021/03/19 12:08:40;;;;;;;7.00;3.95;;;5.60;99.90;;;;;;5074889;28;20570;-77
2021/03/19 12:11:07;;;;;;;4.50;3.65;;;5.60;99.90;;;;;;5074806;28;20210;-76
2021/03/19 12:13:34;;;;;;;7.75;3.58;;;5.60;99.90;;;;;;5076590;28;20257;-73
2021/03/19 12:16:01;;;;;;;6.90;4.85;;;5.60;99.90;;;;;;5078586;28;20281;-72
2021/03/19 12:18:32;;;;;;;8.18;4.38;;;5.40;99.90;;;;;;5077053;28;20298;-72
2021/03/19 12:21:03;;;;;;;7.72;4.93;;;5.30;99.90;;;;;;5078372;28;20285;-72
2021/03/19 12:23:30;;;;;;;8.23;4.80;;;5.30;99.90;;;;;;5078421;28;20219;-73
2021/03/19 12:25:57;;;;;;;9.85;5.10;;;5.40;99.90;;;;;;5077881;28;20205;-72
2021/03/19 12:28:24;;;;;;;7.93;5.10;;;5.40;99.90;;;;;;5077515;28;20224;-71
2021/03/19 12:30:53;;;;;;;8.52;4.70;;;5.40;99.90;;;;;;5077629;28;20203;-71
2021/03/19 12:33:20;;;;;;;9.00;5.07;;;5.30;99.90;;;;;;5077162;28;20254;-70
2021/03/19 12:35:51;;;;;;;10.27;5.53;;;5.30;99.90;;;;;;5076111;28;20522;-70
2021/03/19 12:38:17;;;;;;;8.43;5.32;;;5.30;99.90;;;;;;5076608;28;20336;-71
2021/03/19 12:40:44;;;;;;;9.00;5.20;;;5.40;99.90;;;;;;5076811;28;20213;-71
2021/03/19 12:43:12;;;;;;;9.30;5.78;;;5.50;99.90;;;;;;5077236;28;20291;-71
2021/03/19 12:45:42;;;;;;;8.90;4.85;;;5.40;99.90;;;;;;5075603;28;20301;-71
2021/03/19 12:48:09;;;;;;;10.93;5.55;;;5.40;99.90;;;;;;5076573;28;20530;-71
2021/03/19 12:50:35;;;;;;;9.00;5.43;;;5.30;99.90;;;;;;5076283;28;20209;-71
2021/03/19 12:53:04;;;;;;;9.20;5.45;;;5.30;99.90;;;;;;5075540;28;20637;-71
2021/03/19 12:55:34;;;;;;;10.73;5.70;;;5.20;99.90;;;;;;5076103;28;20249;-71
2021/03/19 12:58:00;;;;;;;8.38;5.30;;;5.20;99.90;;;;;;5076065;28;20656;-71
2021/03/19 13:00:31;;;;;;;10.15;5.10;;;5.10;99.90;;;;;;5075612;28;20298;-70
2021/03/19 13:02:59;;;;;;;10.50;5.78;;;4.80;99.90;;;;;;5074708;28;20308;-71
2021/03/19 13:05:27;;;;;;;12.00;5.80;;;4.80;99.90;;;;;;5074892;28;20210;-70
2021/03/19 13:07:54;;;;;;;11.38;5.90;;;4.80;99.90;;;;;;5074664;28;20214;-70
2021/03/19 13:10:27;;;;;;;10.18;6.60;;;4.90;99.90;;;;;;5074957;28;20199;-70
2021/03/19 13:13:04;;;;;;;12.98;6.55;;;5.00;99.90;;;;;;5074996;28;20237;-71
2021/03/19 13:15:33;;;;;;;15.40;7.00;;;4.90;99.90;;;;;;5075328;28;20202;-70
2021/03/19 13:18:05;;;;;;;8.77;5.45;;;4.50;99.90;;;;;;5074438;28;20234;-71
2021/03/19 13:20:32;;;;;;;10.75;6.60;;;4.40;99.90;;;;;;5074935;28;20239;-70
2021/03/19 13:23:00;;;;;;;11.10;4.93;;;4.40;99.90;;;;;;5074603;28;20310;-71